sensor_id;sensor_type;location;lat;lon;timestamp;pressure;altitude;pressure_sealevel;temperature;humidity
13080;BME280;6606;49.154;9.280;2023-06-14T00:02:34;99147.88;;;14.23;100.00
13080;BME280;6606;49.154;9.280;2023-06-14T00:05:16;99157.09;;;14.19;100.00
13080;BME280;6606;49.154;9.280;2023-06-14T00:07:57;99147.28;;;14.19;100.00
13080;BME280;6606;49.154;9.280;2023-06-14T00:10:40;99149.31;;;14.16;100.00
13080;BME280;6606;49.154;9.280;2023-06-14T00:13:22;99145.91;;;14.14;100.00
13080;BME280;6606;49.154;9.280;2023-06-14T00:16:05;99151.25;;;14.14;100.00
13080;BME280;6606;49.154;9.280;2023-06-14T00:18:47;99141.75;;;14.10;100.00
13080;BME280;6606;49.154;9.280;2023-06-14T00:21:29;99141.97;;;14.06;100.00
13080;BME280;6606;49.154;9.280;2023-06-14T00:24:11;99142.09;;;14.05;100.00
13080;BME280;6606;49.154;9.280;2023-06-14T00:26:52;99146.56;;;14.04;100.00
13080;BME280;6606;49.154;9.280;2023-06-14T00:29:35;99143.06;;;14.04;100.00
13080;BME280;6606;49.154;9.280;2023-06-14T00:32:19;99139.56;;;14.03;100.00
13080;BME280;6606;49.154;9.280;2023-06-14T00:35:06;99147.78;;;14.00;100.00
13080;BME280;6606;49.154;9.280;2023-06-14T00:37:50;99140.09;;;13.96;100.00
13080;BME280;6606;49.154;9.280;2023-06-14T00:40:31;99142.88;;;13.94;100.00
13080;BME280;6606;49.154;9.280;2023-06-14T00:43:14;99139.25;;;13.95;100.00
13080;BME280;6606;49.154;9.280;2023-06-14T00:45:57;99139.25;;;13.95;100.00
13080;BME280;6606;49.154;9.280;2023-06-14T00:48:40;99133.19;;;13.93;100.00
13080;BME280;6606;49.154;9.280;2023-06-14T00:51:23;99131.28;;;13.95;100.00
13080;BME280;6606;49.154;9.280;2023-06-14T00:54:05;99142.16;;;13.92;100.00
13080;BME280;6606;49.154;9.280;2023-06-14T00:56:46;99132.66;;;13.88;100.00
13080;BME280;6606;49.154;9.280;2023-06-14T00:59:28;99140.78;;;13.87;100.00
13080;BME280;6606;49.154;9.280;2023-06-14T01:02:10;99138.44;;;13.82;100.00
13080;BME280;6606;49.154;9.280;2023-06-14T01:04:54;99141.66;;;13.74;100.00
13080;BME280;6606;49.154;9.280;2023-06-14T01:07:51;99137.41;;;13.72;100.00
13080;BME280;6606;49.154;9.280;2023-06-14T01:10:50;99132.31;;;13.69;100.00
13080;BME280;6606;49.154;9.280;2023-06-14T01:13:34;99148.38;;;13.67;100.00
13080;BME280;6606;49.154;9.280;2023-06-14T01:16:17;99142.22;;;13.67;100.00
13080;BME280;6606;49.154;9.280;2023-06-14T01:19:00;99142.66;;;13.60;100.00
13080;BME280;6606;49.154;9.280;2023-06-14T01:21:44;99146.63;;;13.55;100.00
13080;BME280;6606;49.154;9.280;2023-06-14T01:24:27;99140.63;;;13.51;100.00
13080;BME280;6606;49.154;9.280;2023-06-14T01:27:13;99144.28;;;13.50;100.00
13080;BME280;6606;49.154;9.280;2023-06-14T01:29:56;99143.75;;;13.45;100.00
13080;BME280;6606;49.154;9.280;2023-06-14T01:32:38;99147.34;;;13.44;100.00
13080;BME280;6606;49.154;9.280;2023-06-14T01:35:21;99144.06;;;13.40;100.00
13080;BME280;6606;49.154;9.280;2023-06-14T01:38:03;99144.91;;;13.41;100.00
13080;BME280;6606;49.154;9.280;2023-06-14T01:40:49;99135.31;;;13.38;100.00
13080;BME280;6606;49.154;9.280;2023-06-14T01:43:32;99142.47;;;13.38;100.00
13080;BME280;6606;49.154;9.280;2023-06-14T01:46:15;99143.66;;;13.34;100.00
13080;BME280;6606;49.154;9.280;2023-06-14T01:48:57;99147.47;;;13.30;100.00
13080;BME280;6606;49.154;9.280;2023-06-14T01:51:41;99142.16;;;13.30;100.00
13080;BME280;6606;49.154;9.280;2023-06-14T01:54:23;99146.91;;;13.25;100.00
13080;BME280;6606;49.154;9.280;2023-06-14T01:57:07;99144.56;;;13.20;100.00
13080;BME280;6606;49.154;9.280;2023-06-14T01:59:51;99151.91;;;13.16;100.00
13080;BME280;6606;49.154;9.280;2023-06-14T02:02:33;99149.91;;;13.07;100.00
13080;BME280;6606;49.154;9.280;2023-06-14T02:05:17;99153.19;;;13.11;100.00
13080;BME280;6606;49.154;9.280;2023-06-14T02:08:00;99149.03;;;13.07;100.00
13080;BME280;6606;49.154;9.280;2023-06-14T02:10:42;99154.88;;;12.99;100.00
13080;BME280;6606;49.154;9.280;2023-06-14T02:13:25;99162.13;;;12.97;100.00
13080;BME280;6606;49.154;9.280;2023-06-14T02:16:06;99157.75;;;12.96;100.00
13080;BME280;6606;49.154;9.280;2023-06-14T02:18:48;99164.78;;;12.97;100.00
13080;BME280;6606;49.154;9.280;2023-06-14T02:21:31;99156.56;;;12.87;100.00
13080;BME280;6606;49.154;9.280;2023-06-14T02:24:13;99161.06;;;12.87;100.00
13080;BME280;6606;49.154;9.280;2023-06-14T02:26:55;99163.81;;;12.85;100.00
13080;BME280;6606;49.154;9.280;2023-06-14T02:29:38;99157.22;;;12.91;100.00
13080;BME280;6606;49.154;9.280;2023-06-14T02:32:19;99159.69;;;12.94;100.00
13080;BME280;6606;49.154;9.280;2023-06-14T02:35:01;99166.16;;;12.90;100.00
13080;BME280;6606;49.154;9.280;2023-06-14T02:37:43;99167.00;;;12.90;100.00
13080;BME280;6606;49.154;9.280;2023-06-14T02:40:25;99163.41;;;12.91;100.00
13080;BME280;6606;49.154;9.280;2023-06-14T02:43:06;99155.31;;;12.93;100.00
13080;BME280;6606;49.154;9.280;2023-06-14T02:45:49;99160.41;;;12.96;100.00
13080;BME280;6606;49.154;9.280;2023-06-14T02:48:31;99154.88;;;12.99;100.00
13080;BME280;6606;49.154;9.280;2023-06-14T02:51:13;99163.81;;;12.98;100.00
13080;BME280;6606;49.154;9.280;2023-06-14T02:53:55;99160.00;;;13.02;100.00
13080;BME280;6606;49.154;9.280;2023-06-14T02:56:36;99164.16;;;13.06;100.00
13080;BME280;6606;49.154;9.280;2023-06-14T02:59:19;99161.06;;;13.12;100.00
13080;BME280;6606;49.154;9.280;2023-06-14T03:02:04;99165.13;;;13.18;100.00
13080;BME280;6606;49.154;9.280;2023-06-14T03:04:47;99166.59;;;13.09;100.00
13080;BME280;6606;49.154;9.280;2023-06-14T03:07:32;99168.94;;;13.01;100.00
13080;BME280;6606;49.154;9.280;2023-06-14T03:10:15;99177.22;;;12.96;100.00
13080;BME280;6606;49.154;9.280;2023-06-14T03:12:59;99177.09;;;12.85;100.00
13080;BME280;6606;49.154;9.280;2023-06-14T03:15:42;99178.94;;;12.97;100.00
13080;BME280;6606;49.154;9.280;2023-06-14T03:18:26;99180.75;;;12.97;100.00
13080;BME280;6606;49.154;9.280;2023-06-14T03:21:09;99174.03;;;12.91;100.00
13080;BME280;6606;49.154;9.280;2023-06-14T03:23:54;99166.41;;;13.00;100.00
13080;BME280;6606;49.154;9.280;2023-06-14T03:26:36;99175.09;;;13.02;100.00
13080;BME280;6606;49.154;9.280;2023-06-14T03:29:18;99179.56;;;13.01;100.00
13080;BME280;6606;49.154;9.280;2023-06-14T03:32:01;99178.97;;;13.10;100.00
13080;BME280;6606;49.154;9.280;2023-06-14T03:34:53;99179.38;;;13.17;100.00
13080;BME280;6606;49.154;9.280;2023-06-14T03:37:38;99187.13;;;13.20;100.00
13080;BME280;6606;49.154;9.280;2023-06-14T03:40:21;99181.94;;;13.18;100.00
13080;BME280;6606;49.154;9.280;2023-06-14T03:43:07;99186.28;;;13.19;100.00
13080;BME280;6606;49.154;9.280;2023-06-14T03:45:49;99192.38;;;13.22;100.00
13080;BME280;6606;49.154;9.280;2023-06-14T03:48:32;99197.47;;;13.25;100.00
13080;BME280;6606;49.154;9.280;2023-06-14T03:51:15;99203.00;;;13.22;100.00
13080;BME280;6606;49.154;9.280;2023-06-14T03:53:57;99211.63;;;13.25;100.00
13080;BME280;6606;49.154;9.280;2023-06-14T03:56:39;99201.09;;;13.24;100.00
13080;BME280;6606;49.154;9.280;2023-06-14T03:59:24;99209.66;;;13.29;100.00
13080;BME280;6606;49.154;9.280;2023-06-14T04:02:07;99214.53;;;13.35;100.00
13080;BME280;6606;49.154;9.280;2023-06-14T04:04:49;99213.19;;;13.55;100.00
13080;BME280;6606;49.154;9.280;2023-06-14T04:07:33;99223.16;;;13.64;100.00
13080;BME280;6606;49.154;9.280;2023-06-14T04:10:20;99232.06;;;13.89;100.00
13080;BME280;6606;49.154;9.280;2023-06-14T04:13:02;99231.66;;;13.95;100.00
13080;BME280;6606;49.154;9.280;2023-06-14T04:15:45;99222.75;;;14.20;100.00
13080;BME280;6606;49.154;9.280;2023-06-14T04:18:31;99235.41;;;14.29;100.00
13080;BME280;6606;49.154;9.280;2023-06-14T04:21:13;99231.59;;;14.44;100.00
13080;BME280;6606;49.154;9.280;2023-06-14T04:23:56;99239.94;;;14.52;100.00
13080;BME280;6606;49.154;9.280;2023-06-14T04:26:43;99245.44;;;14.62;100.00
13080;BME280;6606;49.154;9.280;2023-06-14T04:29:26;99246.38;;;14.74;100.00
13080;BME280;6606;49.154;9.280;2023-06-14T04:32:16;99249.91;;;14.86;100.00
13080;BME280;6606;49.154;9.280;2023-06-14T04:34:59;99244.75;;;14.95;100.00
13080;BME280;6606;49.154;9.280;2023-06-14T04:37:45;99245.00;;;14.92;100.00
13080;BME280;6606;49.154;9.280;2023-06-14T04:40:28;99245.94;;;14.91;100.00
13080;BME280;6606;49.154;9.280;2023-06-14T04:43:10;99249.88;;;15.10;100.00
13080;BME280;6606;49.154;9.280;2023-06-14T04:45:55;99257.41;;;15.05;100.00
13080;BME280;6606;49.154;9.280;2023-06-14T04:48:37;99262.41;;;15.21;100.00
13080;BME280;6606;49.154;9.280;2023-06-14T04:51:21;99259.56;;;15.35;100.00
13080;BME280;6606;49.154;9.280;2023-06-14T04:54:10;99265.50;;;15.38;100.00
13080;BME280;6606;49.154;9.280;2023-06-14T04:56:56;99271.84;;;15.49;100.00
13080;BME280;6606;49.154;9.280;2023-06-14T04:59:40;99275.13;;;15.52;100.00
13080;BME280;6606;49.154;9.280;2023-06-14T05:02:22;99276.22;;;15.50;100.00
13080;BME280;6606;49.154;9.280;2023-06-14T05:05:05;99281.47;;;15.63;100.00
13080;BME280;6606;49.154;9.280;2023-06-14T05:07:48;99273.56;;;15.61;100.00
13080;BME280;6606;49.154;9.280;2023-06-14T05:10:31;99281.81;;;15.58;100.00
13080;BME280;6606;49.154;9.280;2023-06-14T05:13:16;99273.38;;;15.75;100.00
13080;BME280;6606;49.154;9.280;2023-06-14T05:16:00;99281.66;;;15.83;100.00
13080;BME280;6606;49.154;9.280;2023-06-14T05:18:41;99272.53;;;15.75;100.00
13080;BME280;6606;49.154;9.280;2023-06-14T05:21:23;99273.38;;;15.98;100.00
13080;BME280;6606;49.154;9.280;2023-06-14T05:24:06;99272.19;;;15.91;100.00
13080;BME280;6606;49.154;9.280;2023-06-14T05:26:49;99277.03;;;15.97;100.00
13080;BME280;6606;49.154;9.280;2023-06-14T05:29:32;99278.97;;;16.17;100.00
13080;BME280;6606;49.154;9.280;2023-06-14T05:32:14;99274.59;;;16.27;100.00
13080;BME280;6606;49.154;9.280;2023-06-14T05:34:55;99281.91;;;16.25;100.00
13080;BME280;6606;49.154;9.280;2023-06-14T05:37:37;99278.25;;;16.15;100.00
13080;BME280;6606;49.154;9.280;2023-06-14T05:40:19;99288.94;;;16.26;100.00
13080;BME280;6606;49.154;9.280;2023-06-14T05:43:02;99285.75;;;16.44;100.00
13080;BME280;6606;49.154;9.280;2023-06-14T05:45:45;99288.41;;;16.55;100.00
13080;BME280;6606;49.154;9.280;2023-06-14T05:48:27;99281.97;;;16.58;100.00
13080;BME280;6606;49.154;9.280;2023-06-14T05:51:08;99287.16;;;16.70;100.00
13080;BME280;6606;49.154;9.280;2023-06-14T05:53:50;99286.44;;;16.80;100.00
13080;BME280;6606;49.154;9.280;2023-06-14T05:56:32;99293.25;;;16.84;100.00
13080;BME280;6606;49.154;9.280;2023-06-14T05:59:14;99297.25;;;16.89;100.00
13080;BME280;6606;49.154;9.280;2023-06-14T06:01:57;99297.44;;;16.98;100.00
13080;BME280;6606;49.154;9.280;2023-06-14T06:04:38;99293.81;;;17.20;100.00
13080;BME280;6606;49.154;9.280;2023-06-14T06:07:20;99298.50;;;17.06;100.00
13080;BME280;6606;49.154;9.280;2023-06-14T06:10:03;99297.03;;;17.13;100.00
13080;BME280;6606;49.154;9.280;2023-06-14T06:12:45;99294.50;;;17.33;100.00
13080;BME280;6606;49.154;9.280;2023-06-14T06:15:27;99293.19;;;17.48;100.00
13080;BME280;6606;49.154;9.280;2023-06-14T06:18:10;99298.63;;;17.58;100.00
13080;BME280;6606;49.154;9.280;2023-06-14T06:20:52;99301.69;;;17.74;100.00
13080;BME280;6606;49.154;9.280;2023-06-14T06:23:34;99299.28;;;17.71;100.00
13080;BME280;6606;49.154;9.280;2023-06-14T06:26:16;99300.56;;;17.77;100.00
13080;BME280;6606;49.154;9.280;2023-06-14T06:28:57;99297.78;;;17.99;100.00
13080;BME280;6606;49.154;9.280;2023-06-14T06:31:39;99296.41;;;18.15;100.00
13080;BME280;6606;49.154;9.280;2023-06-14T06:34:22;99301.72;;;18.26;100.00
13080;BME280;6606;49.154;9.280;2023-06-14T06:37:05;99306.97;;;18.37;100.00
13080;BME280;6606;49.154;9.280;2023-06-14T06:39:46;99307.84;;;18.48;100.00
13080;BME280;6606;49.154;9.280;2023-06-14T06:42:28;99317.47;;;18.60;100.00
13080;BME280;6606;49.154;9.280;2023-06-14T06:45:13;99309.34;;;18.71;100.00
13080;BME280;6606;49.154;9.280;2023-06-14T06:47:54;99314.28;;;18.76;100.00
13080;BME280;6606;49.154;9.280;2023-06-14T06:50:38;99322.09;;;18.88;100.00
13080;BME280;6606;49.154;9.280;2023-06-14T06:53:20;99316.06;;;19.06;100.00
13080;BME280;6606;49.154;9.280;2023-06-14T06:56:02;99322.69;;;18.92;100.00
13080;BME280;6606;49.154;9.280;2023-06-14T06:58:44;99329.19;;;19.28;100.00
13080;BME280;6606;49.154;9.280;2023-06-14T07:01:26;99318.44;;;21.61;81.00
13080;BME280;6606;49.154;9.280;2023-06-14T07:04:09;99316.09;;;24.34;59.46
13080;BME280;6606;49.154;9.280;2023-06-14T07:06:52;99313.59;;;26.10;51.17
13080;BME280;6606;49.154;9.280;2023-06-14T07:09:34;99306.84;;;28.44;43.99
13080;BME280;6606;49.154;9.280;2023-06-14T07:12:15;99321.44;;;28.30;40.85
13080;BME280;6606;49.154;9.280;2023-06-14T07:14:57;99318.31;;;28.39;37.69
13080;BME280;6606;49.154;9.280;2023-06-14T07:17:40;99314.59;;;28.88;39.33
13080;BME280;6606;49.154;9.280;2023-06-14T07:20:23;99318.34;;;29.62;35.52
13080;BME280;6606;49.154;9.280;2023-06-14T07:23:08;99321.69;;;29.57;35.77
13080;BME280;6606;49.154;9.280;2023-06-14T07:25:51;99328.81;;;29.39;35.35
13080;BME280;6606;49.154;9.280;2023-06-14T07:28:34;99321.50;;;29.79;33.84
13080;BME280;6606;49.154;9.280;2023-06-14T07:31:16;99325.03;;;30.46;33.38
13080;BME280;6606;49.154;9.280;2023-06-14T07:33:59;99332.13;;;30.60;33.23
13080;BME280;6606;49.154;9.280;2023-06-14T07:36:41;99330.78;;;30.89;32.47
13080;BME280;6606;49.154;9.280;2023-06-14T07:39:26;99328.03;;;29.78;33.00
13080;BME280;6606;49.154;9.280;2023-06-14T07:42:07;99332.94;;;30.81;31.83
13080;BME280;6606;49.154;9.280;2023-06-14T07:44:49;99331.97;;;30.49;31.65
13080;BME280;6606;49.154;9.280;2023-06-14T07:47:32;99337.75;;;31.24;31.36
13080;BME280;6606;49.154;9.280;2023-06-14T07:50:14;99339.91;;;31.53;29.84
13080;BME280;6606;49.154;9.280;2023-06-14T07:52:56;99344.41;;;29.85;32.16
13080;BME280;6606;49.154;9.280;2023-06-14T07:55:39;99345.09;;;30.85;31.06
13080;BME280;6606;49.154;9.280;2023-06-14T07:58:23;99332.06;;;30.87;31.50
13080;BME280;6606;49.154;9.280;2023-06-14T08:01:05;99343.31;;;30.45;31.29
13080;BME280;6606;49.154;9.280;2023-06-14T08:03:48;99340.38;;;31.05;30.22
13080;BME280;6606;49.154;9.280;2023-06-14T08:06:30;99329.19;;;31.52;29.25
13080;BME280;6606;49.154;9.280;2023-06-14T08:09:12;99342.59;;;30.83;29.80
13080;BME280;6606;49.154;9.280;2023-06-14T08:11:55;99346.88;;;29.33;31.56
13080;BME280;6606;49.154;9.280;2023-06-14T08:14:39;99337.13;;;30.77;30.23
13080;BME280;6606;49.154;9.280;2023-06-14T08:17:20;99338.13;;;30.04;30.77
13080;BME280;6606;49.154;9.280;2023-06-14T08:20:03;99336.66;;;29.82;31.03
13080;BME280;6606;49.154;9.280;2023-06-14T08:22:46;99331.56;;;30.32;30.54
13080;BME280;6606;49.154;9.280;2023-06-14T08:25:28;99343.94;;;30.54;31.08
13080;BME280;6606;49.154;9.280;2023-06-14T08:28:11;99337.66;;;30.40;31.07
13080;BME280;6606;49.154;9.280;2023-06-14T08:30:53;99335.72;;;30.54;31.15
13080;BME280;6606;49.154;9.280;2023-06-14T08:33:35;99345.69;;;30.29;31.15
13080;BME280;6606;49.154;9.280;2023-06-14T08:36:17;99340.19;;;30.49;31.01
13080;BME280;6606;49.154;9.280;2023-06-14T08:38:58;99337.88;;;32.42;28.98
13080;BME280;6606;49.154;9.280;2023-06-14T08:41:40;99336.19;;;31.73;28.94
13080;BME280;6606;49.154;9.280;2023-06-14T08:44:23;99341.91;;;31.33;30.01
13080;BME280;6606;49.154;9.280;2023-06-14T08:47:06;99338.31;;;31.71;29.40
13080;BME280;6606;49.154;9.280;2023-06-14T08:49:49;99339.41;;;31.88;29.00
13080;BME280;6606;49.154;9.280;2023-06-14T08:52:33;99346.00;;;30.65;29.80
13080;BME280;6606;49.154;9.280;2023-06-14T08:55:21;99342.75;;;29.84;31.57
13080;BME280;6606;49.154;9.280;2023-06-14T08:58:06;99349.75;;;28.35;33.24
13080;BME280;6606;49.154;9.280;2023-06-14T09:00:51;99339.50;;;26.65;36.97
13080;BME280;6606;49.154;9.280;2023-06-14T09:03:33;99343.28;;;25.51;39.78
13080;BME280;6606;49.154;9.280;2023-06-14T09:06:17;99339.09;;;25.25;41.57
13080;BME280;6606;49.154;9.280;2023-06-14T09:08:59;99332.50;;;24.88;43.92
13080;BME280;6606;49.154;9.280;2023-06-14T09:11:42;99340.41;;;24.67;47.67
13080;BME280;6606;49.154;9.280;2023-06-14T09:14:24;99345.44;;;24.14;47.01
13080;BME280;6606;49.154;9.280;2023-06-14T09:17:07;99341.00;;;24.21;44.98
13080;BME280;6606;49.154;9.280;2023-06-14T09:19:49;99343.63;;;24.62;46.86
13080;BME280;6606;49.154;9.280;2023-06-14T09:22:31;99337.25;;;24.86;43.67
13080;BME280;6606;49.154;9.280;2023-06-14T09:25:12;99349.25;;;24.52;44.77
13080;BME280;6606;49.154;9.280;2023-06-14T09:27:55;99343.56;;;24.78;44.31
13080;BME280;6606;49.154;9.280;2023-06-14T09:30:38;99346.84;;;24.57;46.77
13080;BME280;6606;49.154;9.280;2023-06-14T09:33:21;99335.94;;;24.74;47.87
13080;BME280;6606;49.154;9.280;2023-06-14T09:36:03;99337.06;;;25.27;49.11
13080;BME280;6606;49.154;9.280;2023-06-14T09:38:51;99339.44;;;24.91;44.90
13080;BME280;6606;49.154;9.280;2023-06-14T09:41:34;99337.22;;;25.26;44.26
13080;BME280;6606;49.154;9.280;2023-06-14T09:44:17;99335.13;;;25.36;44.26
13080;BME280;6606;49.154;9.280;2023-06-14T09:47:02;99339.34;;;25.07;44.53
13080;BME280;6606;49.154;9.280;2023-06-14T09:49:46;99336.25;;;25.41;43.10
13080;BME280;6606;49.154;9.280;2023-06-14T09:52:28;99339.44;;;25.68;43.45
13080;BME280;6606;49.154;9.280;2023-06-14T09:55:12;99347.63;;;25.37;40.98
13080;BME280;6606;49.154;9.280;2023-06-14T09:57:56;99338.84;;;25.58;41.52
13080;BME280;6606;49.154;9.280;2023-06-14T10:00:38;99335.53;;;25.25;41.22
13080;BME280;6606;49.154;9.280;2023-06-14T10:03:25;99348.91;;;25.26;43.99
13080;BME280;6606;49.154;9.280;2023-06-14T10:06:11;99335.47;;;25.33;42.27
13080;BME280;6606;49.154;9.280;2023-06-14T10:08:55;99334.97;;;25.75;41.38
13080;BME280;6606;49.154;9.280;2023-06-14T10:11:38;99332.44;;;26.26;38.57
13080;BME280;6606;49.154;9.280;2023-06-14T10:14:24;99331.28;;;26.06;38.98
13080;BME280;6606;49.154;9.280;2023-06-14T10:17:09;99326.84;;;26.58;39.72
13080;BME280;6606;49.154;9.280;2023-06-14T10:19:55;99335.91;;;26.80;38.14
13080;BME280;6606;49.154;9.280;2023-06-14T10:22:43;99340.56;;;26.86;34.48
13080;BME280;6606;49.154;9.280;2023-06-14T10:25:27;99332.16;;;26.51;33.94
13080;BME280;6606;49.154;9.280;2023-06-14T10:28:17;99334.63;;;26.61;35.77
13080;BME280;6606;49.154;9.280;2023-06-14T10:31:02;99332.78;;;27.55;32.74
13080;BME280;6606;49.154;9.280;2023-06-14T10:33:49;99337.50;;;27.68;33.24
13080;BME280;6606;49.154;9.280;2023-06-14T10:36:31;99331.44;;;27.94;33.35
13080;BME280;6606;49.154;9.280;2023-06-14T10:39:17;99338.88;;;28.07;31.34
13080;BME280;6606;49.154;9.280;2023-06-14T10:42:01;99337.56;;;27.53;29.92
13080;BME280;6606;49.154;9.280;2023-06-14T10:44:45;99327.44;;;27.69;30.53
13080;BME280;6606;49.154;9.280;2023-06-14T10:47:28;99330.81;;;27.49;30.74
13080;BME280;6606;49.154;9.280;2023-06-14T10:50:11;99329.88;;;28.06;30.48
13080;BME280;6606;49.154;9.280;2023-06-14T10:52:55;99327.84;;;27.66;32.03
13080;BME280;6606;49.154;9.280;2023-06-14T10:55:38;99324.03;;;27.81;30.32
13080;BME280;6606;49.154;9.280;2023-06-14T10:58:20;99321.38;;;26.72;31.71
13080;BME280;6606;49.154;9.280;2023-06-14T11:01:01;99330.53;;;25.74;33.25
13080;BME280;6606;49.154;9.280;2023-06-14T11:03:50;99319.13;;;26.02;33.69
13080;BME280;6606;49.154;9.280;2023-06-14T11:06:45;99322.66;;;27.71;32.09
13080;BME280;6606;49.154;9.280;2023-06-14T11:09:50;99327.44;;;27.69;32.40
13080;BME280;6606;49.154;9.280;2023-06-14T11:12:37;99323.84;;;25.85;35.95
13080;BME280;6606;49.154;9.280;2023-06-14T11:15:20;99321.56;;;25.74;36.79
13080;BME280;6606;49.154;9.280;2023-06-14T11:18:03;99318.72;;;26.94;36.79
13080;BME280;6606;49.154;9.280;2023-06-14T11:20:46;99319.66;;;27.44;33.53
13080;BME280;6606;49.154;9.280;2023-06-14T11:23:28;99315.09;;;27.94;34.07
13080;BME280;6606;49.154;9.280;2023-06-14T11:26:10;99319.44;;;28.17;32.36
13080;BME280;6606;49.154;9.280;2023-06-14T11:28:56;99315.84;;;27.38;32.31
13080;BME280;6606;49.154;9.280;2023-06-14T11:31:43;99326.19;;;26.56;35.15
13080;BME280;6606;49.154;9.280;2023-06-14T11:34:25;99322.13;;;26.07;35.20
13080;BME280;6606;49.154;9.280;2023-06-14T11:37:07;99318.69;;;25.75;36.79
13080;BME280;6606;49.154;9.280;2023-06-14T11:39:49;99318.00;;;26.41;34.22
13080;BME280;6606;49.154;9.280;2023-06-14T11:42:31;99308.16;;;27.42;32.24
13080;BME280;6606;49.154;9.280;2023-06-14T11:45:14;99309.53;;;28.02;32.18
13080;BME280;6606;49.154;9.280;2023-06-14T11:47:56;99306.38;;;28.40;31.99
13080;BME280;6606;49.154;9.280;2023-06-14T11:50:38;99312.34;;;28.16;29.34
13080;BME280;6606;49.154;9.280;2023-06-14T11:53:20;99312.28;;;28.92;28.41
13080;BME280;6606;49.154;9.280;2023-06-14T11:56:02;99310.03;;;28.54;30.86
13080;BME280;6606;49.154;9.280;2023-06-14T11:58:44;99314.50;;;28.34;32.28
13080;BME280;6606;49.154;9.280;2023-06-14T12:01:29;99321.31;;;27.02;31.27
13080;BME280;6606;49.154;9.280;2023-06-14T12:04:11;99310.53;;;28.01;31.09
13080;BME280;6606;49.154;9.280;2023-06-14T12:06:53;99313.84;;;28.25;31.01
13080;BME280;6606;49.154;9.280;2023-06-14T12:09:36;99312.63;;;27.99;31.30
13080;BME280;6606;49.154;9.280;2023-06-14T12:12:17;99307.41;;;28.39;29.39
13080;BME280;6606;49.154;9.280;2023-06-14T12:14:59;99309.81;;;27.65;30.76
13080;BME280;6606;49.154;9.280;2023-06-14T12:17:42;99306.31;;;27.92;31.08
13080;BME280;6606;49.154;9.280;2023-06-14T12:20:29;99304.47;;;28.34;30.38
13080;BME280;6606;49.154;9.280;2023-06-14T12:23:11;99305.88;;;28.65;29.05
13080;BME280;6606;49.154;9.280;2023-06-14T12:25:53;99307.06;;;28.97;27.62
13080;BME280;6606;49.154;9.280;2023-06-14T12:28:35;99304.84;;;29.34;28.56
13080;BME280;6606;49.154;9.280;2023-06-14T12:31:17;99292.69;;;29.50;26.98
13080;BME280;6606;49.154;9.280;2023-06-14T12:34:01;99299.56;;;29.06;28.39
13080;BME280;6606;49.154;9.280;2023-06-14T12:36:42;99313.91;;;28.73;29.97
13080;BME280;6606;49.154;9.280;2023-06-14T12:39:26;99309.03;;;27.28;32.76
13080;BME280;6606;49.154;9.280;2023-06-14T12:42:08;99309.13;;;26.98;32.07
13080;BME280;6606;49.154;9.280;2023-06-14T12:44:50;99316.47;;;26.83;32.27
13080;BME280;6606;49.154;9.280;2023-06-14T12:47:31;99304.69;;;26.75;32.77
13080;BME280;6606;49.154;9.280;2023-06-14T12:50:15;99308.13;;;26.84;33.09
13080;BME280;6606;49.154;9.280;2023-06-14T12:52:56;99306.66;;;26.67;33.41
13080;BME280;6606;49.154;9.280;2023-06-14T12:55:38;99312.22;;;26.44;33.49
13080;BME280;6606;49.154;9.280;2023-06-14T12:58:20;99309.56;;;26.06;34.15
13080;BME280;6606;49.154;9.280;2023-06-14T13:01:01;99303.41;;;26.12;34.18
13080;BME280;6606;49.154;9.280;2023-06-14T13:03:43;99308.06;;;26.48;34.41
13080;BME280;6606;49.154;9.280;2023-06-14T13:06:26;99302.66;;;26.18;33.13
13080;BME280;6606;49.154;9.280;2023-06-14T13:09:10;99303.47;;;25.89;33.66
13080;BME280;6606;49.154;9.280;2023-06-14T13:11:53;99306.56;;;26.01;34.55
13080;BME280;6606;49.154;9.280;2023-06-14T13:14:35;99310.13;;;26.16;34.37
13080;BME280;6606;49.154;9.280;2023-06-14T13:17:17;99306.69;;;26.52;33.06
13080;BME280;6606;49.154;9.280;2023-06-14T13:19:58;99299.41;;;27.75;30.89
13080;BME280;6606;49.154;9.280;2023-06-14T13:22:41;99298.66;;;28.44;30.70
13080;BME280;6606;49.154;9.280;2023-06-14T13:25:23;99301.44;;;29.05;30.10
13080;BME280;6606;49.154;9.280;2023-06-14T13:28:05;99303.91;;;28.11;30.43
13080;BME280;6606;49.154;9.280;2023-06-14T13:30:47;99305.06;;;28.71;29.72
13080;BME280;6606;49.154;9.280;2023-06-14T13:33:29;99302.22;;;28.92;29.14
13080;BME280;6606;49.154;9.280;2023-06-14T13:36:10;99300.94;;;28.82;29.20
13080;BME280;6606;49.154;9.280;2023-06-14T13:38:53;99309.88;;;29.17;29.60
13080;BME280;6606;49.154;9.280;2023-06-14T13:41:35;99295.81;;;28.59;30.08
13080;BME280;6606;49.154;9.280;2023-06-14T13:44:17;99317.16;;;28.48;28.86
13080;BME280;6606;49.154;9.280;2023-06-14T13:47:01;99313.34;;;28.15;29.41
13080;BME280;6606;49.154;9.280;2023-06-14T13:49:43;99301.09;;;27.76;31.47
13080;BME280;6606;49.154;9.280;2023-06-14T13:52:25;99293.91;;;28.24;31.09
13080;BME280;6606;49.154;9.280;2023-06-14T13:55:09;99299.13;;;27.84;30.89
13080;BME280;6606;49.154;9.280;2023-06-14T13:57:50;99287.72;;;28.37;30.73
13080;BME280;6606;49.154;9.280;2023-06-14T14:00:32;99281.00;;;28.40;30.23
13080;BME280;6606;49.154;9.280;2023-06-14T14:03:14;99292.78;;;28.47;29.49
13080;BME280;6606;49.154;9.280;2023-06-14T14:05:56;99283.19;;;27.88;30.30
13080;BME280;6606;49.154;9.280;2023-06-14T14:08:37;99284.16;;;27.52;30.64
13080;BME280;6606;49.154;9.280;2023-06-14T14:11:21;99293.19;;;26.95;31.61
13080;BME280;6606;49.154;9.280;2023-06-14T14:14:02;99281.66;;;26.42;32.25
13080;BME280;6606;49.154;9.280;2023-06-14T14:16:45;99286.72;;;26.15;33.01
13080;BME280;6606;49.154;9.280;2023-06-14T14:19:27;99277.66;;;26.89;32.33
13080;BME280;6606;49.154;9.280;2023-06-14T14:22:08;99280.56;;;27.52;31.08
13080;BME280;6606;49.154;9.280;2023-06-14T14:24:50;99287.50;;;27.54;31.95
13080;BME280;6606;49.154;9.280;2023-06-14T14:27:33;99278.38;;;28.18;29.87
13080;BME280;6606;49.154;9.280;2023-06-14T14:30:15;99280.00;;;28.13;30.38